createdAt,value
2018-07-23T15:47:12.914Z,31.70
2018-07-23T15:52:17.314Z,32.20
2018-07-23T15:57:36.477Z,32.50
2018-07-23T16:02:40.388Z,32.60
2018-07-23T16:07:44.174Z,32.50
2018-07-23T16:12:48.318Z,32.40
2018-07-23T16:17:53.540Z,32.40
2018-07-23T16:22:57.580Z,32.60
2018-07-23T16:28:01.219Z,32.60
2018-07-23T16:33:05.641Z,32.80
2018-07-23T16:38:10.318Z,33.00
2018-07-23T16:43:14.251Z,33.50
2018-07-23T16:48:18.665Z,33.80
2018-07-23T16:53:22.544Z,33.50
2018-07-23T16:58:29.043Z,33.40
2018-07-23T17:03:32.815Z,33.30
2018-07-23T17:08:37.316Z,33.50
2018-07-23T17:13:41.719Z,33.60
2018-07-23T17:18:45.624Z,33.80
2018-07-23T17:23:49.553Z,34.10
2018-07-23T17:28:53.743Z,34.90
2018-07-23T17:33:57.631Z,35.40
2018-07-23T17:39:01.904Z,35.50
2018-07-23T17:44:06.006Z,35.80
2018-07-23T17:49:11.628Z,35.80
2018-07-23T17:54:16.290Z,36.00
2018-07-23T17:59:21.517Z,36.50
2018-07-23T18:04:25.316Z,36.40
2018-07-23T18:09:29.559Z,38.10
2018-07-23T18:14:33.264Z,37.50
2018-07-23T18:19:37.503Z,38.10
2018-07-23T18:24:41.403Z,38.60
2018-07-23T18:29:45.764Z,38.70
2018-07-23T18:34:50.068Z,38.90
2018-07-23T18:39:53.883Z,39.40
2018-07-23T18:44:58.359Z,39.70
2018-07-23T18:50:02.267Z,39.80
2018-07-23T18:55:06.331Z,40.30
2018-07-23T19:00:10.223Z,40.30
2018-07-23T19:05:14.022Z,40.60
2018-07-23T19:10:17.822Z,40.50
2018-07-23T19:15:21.530Z,40.50
2018-07-23T19:20:25.724Z,40.50
2018-07-23T19:25:29.438Z,40.60
2018-07-23T19:30:33.417Z,40.80
2018-07-23T19:35:37.807Z,41.00
2018-07-23T19:40:42.222Z,40.80
2018-07-23T19:45:46.593Z,40.80
2018-07-23T19:50:50.843Z,40.70
2018-07-23T19:55:54.682Z,41.40
2018-07-23T20:00:58.406Z,40.90
2018-07-23T20:06:02.199Z,41.00
2018-07-23T20:11:06.224Z,41.00
2018-07-23T20:16:10.304Z,41.60
2018-07-23T20:21:14.418Z,41.00
2018-07-23T20:26:27.798Z,41.10
2018-07-23T20:31:32.031Z,41.30
2018-07-23T20:36:36.200Z,41.30
2018-07-23T20:41:40.159Z,41.40
2018-07-23T20:47:04.443Z,41.50
2018-07-23T20:52:09.141Z,41.70
2018-07-23T20:57:12.928Z,41.70
2018-07-23T21:02:17.002Z,41.60
2018-07-23T21:07:21.157Z,41.90
2018-07-23T21:12:25.333Z,42.00
2018-07-23T21:17:29.294Z,41.90
2018-07-23T21:22:33.086Z,42.10
2018-07-23T21:27:37.075Z,42.10
2018-07-23T21:32:40.698Z,42.30
2018-07-23T21:37:44.418Z,42.40
2018-07-23T21:42:48.493Z,42.40
2018-07-23T21:47:52.192Z,42.50
2018-07-23T21:52:55.875Z,42.60
2018-07-23T22:03:33.470Z,42.60
2018-07-23T22:14:20.498Z,42.80
2018-07-23T22:19:37.945Z,42.70
2018-07-23T22:24:41.757Z,43.50
2018-07-23T22:29:45.463Z,42.90
2018-07-23T22:34:49.151Z,43.10
2018-07-23T22:39:53.096Z,43.10
2018-07-23T22:44:56.755Z,43.20
2018-07-23T22:50:00.556Z,43.40
2018-07-23T22:55:04.482Z,43.50
2018-07-23T23:00:08.480Z,43.60
2018-07-23T23:05:12.206Z,43.60
2018-07-23T23:10:16.001Z,43.60
2018-07-23T23:15:20.062Z,43.60
2018-07-23T23:20:23.885Z,43.70
2018-07-23T23:25:27.824Z,43.60
2018-07-23T23:30:31.740Z,43.80
2018-07-23T23:35:41.311Z,43.70
2018-07-23T23:40:45.264Z,43.80
2018-07-23T23:45:49.468Z,43.90
2018-07-23T23:50:53.179Z,44.00
